createdAt,value
2019-04-22T00:00:08.538Z,279.75
2019-04-22T00:01:41.868Z,279.75
2019-04-22T00:03:20.354Z,279.79
2019-04-22T00:05:42.649Z,279.75
2019-04-22T00:08:55.182Z,279.55
2019-04-22T00:15:03.530Z,279.46
2019-04-22T00:17:59.808Z,279.36
2019-04-22T00:27:33.432Z,279.12
2019-04-22T00:30:25.294Z,279.16
2019-04-22T00:33:26.208Z,279.09
2019-04-22T00:36:08.509Z,279.1
2019-04-22T00:42:40.784Z,278.99
2019-04-22T00:45:32.730Z,278.98
2019-04-22T00:49:35.401Z,278.89
2019-04-22T00:58:58.275Z,278.77
2019-04-22T01:02:06.654Z,278.67
2019-04-22T01:05:40.243Z,278.59
2019-04-22T01:09:23.161Z,278.51
2019-04-22T01:12:19.480Z,278.46
2019-04-22T01:17:38.424Z,278.37
2019-04-22T01:20:29.155Z,278.4
2019-04-22T01:23:23.360Z,278.34
2019-04-22T01:26:19.871Z,278.22
2019-04-22T01:28:49.901Z,278.17
2019-04-22T01:31:04.625Z,278.2
2019-04-22T01:33:05.541Z,278.12
2019-04-22T01:35:35.697Z,278.08
2019-04-22T01:38:13.032Z,278.04
2019-04-22T01:41:06.889Z,277.99
2019-04-22T01:44:43.590Z,277.88
2019-04-22T01:47:48.536Z,277.87
2019-04-22T01:51:12.083Z,277.86
2019-04-22T01:54:54.374Z,277.89
2019-04-22T01:58:10.582Z,277.9
2019-04-22T02:01:04.352Z,277.85
2019-04-22T02:04:25.440Z,277.78
2019-04-22T02:08:03.917Z,277.67
2019-04-22T02:11:31.957Z,277.71
2019-04-22T02:17:36.463Z,277.61
2019-04-22T02:20:42.605Z,277.56
2019-04-22T02:26:35.302Z,277.53
2019-04-22T02:30:20.763Z,277.47
2019-04-22T02:34:08.587Z,277.42
2019-04-22T02:37:27.541Z,277.34
2019-04-22T02:41:25.943Z,277.26
2019-04-22T02:44:46.389Z,277.23
2019-04-22T02:49:28.871Z,277.19
2019-04-22T02:52:49.492Z,277.14
2019-04-22T03:00:12.006Z,277.05
2019-04-22T03:03:50.290Z,276.97
2019-04-22T03:06:42.539Z,276.92
2019-04-22T03:09:47.278Z,276.93
2019-04-22T03:22:54.836Z,276.83
2019-04-22T03:31:02.889Z,276.72
2019-04-22T03:40:11.620Z,276.57
2019-04-22T03:47:55.722Z,276.59
2019-04-22T03:51:24.620Z,276.56
2019-04-22T03:54:45.316Z,276.5
2019-04-22T03:58:20.675Z,276.51
2019-04-22T04:13:02.606Z,276.26
2019-04-22T04:16:29.657Z,276.32
2019-04-22T04:19:55.849Z,276.32
2019-04-22T04:23:07.604Z,276.26
2019-04-22T04:32:18.325Z,276.25
2019-04-22T04:35:52.418Z,276.15
2019-04-22T04:39:33.976Z,276.13
2019-04-22T04:42:58.080Z,276.18
2019-04-22T04:46:58.165Z,276.26
2019-04-22T04:53:40.667Z,276.31
2019-04-22T04:58:03.088Z,276.46
2019-04-22T05:06:05.313Z,276.7
2019-04-22T05:09:42.580Z,276.78
2019-04-22T05:16:46.170Z,277.07
2019-04-22T05:20:31.768Z,277.26
2019-04-22T05:30:31.832Z,277.79
2019-04-22T05:33:40.511Z,277.86
2019-04-22T05:37:00.481Z,277.99
2019-04-22T05:40:40.270Z,278.23
2019-04-22T05:47:19.271Z,278.65
2019-04-22T05:50:36.527Z,278.86
2019-04-22T05:52:50.982Z,279.05
2019-04-22T05:55:46.533Z,279.19
2019-04-22T05:59:03.360Z,279.38
2019-04-22T06:02:10.924Z,279.61
2019-04-22T06:05:16.413Z,279.84
2019-04-22T06:08:45.271Z,280.07
2019-04-22T06:11:44.449Z,280.23
2019-04-22T06:14:30.596Z,280.43
2019-04-22T06:17:54.573Z,280.71
2019-04-22T06:21:10.980Z,280.96
2019-04-22T06:24:10.438Z,281.2
2019-04-22T06:27:14.391Z,281.35
2019-04-22T06:30:13.765Z,281.56
2019-04-22T06:32:52.995Z,281.79
2019-04-22T06:36:07.894Z,281.92
2019-04-22T06:38:44.700Z,282.18
2019-04-22T06:42:21.123Z,282.4
2019-04-22T06:45:43.362Z,282.49
2019-04-22T06:48:39.394Z,282.6
2019-04-22T06:52:17.586Z,282.95
2019-04-22T06:55:26.976Z,283.11
2019-04-22T07:01:35.345Z,283.54
2019-04-22T07:05:00.807Z,283.8
2019-04-22T07:09:05.696Z,283.92
2019-04-22T07:11:49.320Z,284.11
2019-04-22T07:18:35.422Z,284.66
2019-04-22T07:21:43.398Z,284.77
2019-04-22T07:25:02.962Z,285.01
2019-04-22T07:31:10.147Z,285.25
2019-04-22T07:38:04.251Z,285.73
2019-04-22T07:40:55.123Z,285.76
2019-04-22T07:47:43.975Z,286.21
2019-04-22T07:51:06.837Z,286.23
2019-04-22T07:54:12.993Z,286.2
2019-04-22T07:57:32.204Z,286.6
2019-04-22T08:06:45.849Z,287.09
2019-04-22T08:09:35.438Z,287.31
2019-04-22T08:12:57.523Z,287.4
2019-04-22T08:19:15.318Z,287.78
2019-04-22T08:22:42.514Z,287.99
2019-04-22T08:25:54.106Z,288.17
2019-04-22T08:29:25.010Z,288.39
2019-04-22T08:36:25.459Z,289
2019-04-22T08:41:57.020Z,289.15
2019-04-22T08:49:05.255Z,289.25
2019-04-22T08:51:54.782Z,289.49
2019-04-22T08:55:10.882Z,289.62
2019-04-22T08:58:56.478Z,290.01
2019-04-22T09:01:48.738Z,290.27
2019-04-22T09:04:59.670Z,290.42
2019-04-22T09:12:13.875Z,290.9
2019-04-22T09:15:55.251Z,290.96
2019-04-22T09:19:28.250Z,291.24
2019-04-22T09:22:26.050Z,291.32
2019-04-22T09:25:34.072Z,291.55
2019-04-22T09:28:37.501Z,291.68
2019-04-22T09:31:43.916Z,291.92
2019-04-22T09:35:01.898Z,292.14
2019-04-22T09:41:26.945Z,292.48
2019-04-22T09:44:47.011Z,292.71
2019-04-22T09:47:33.443Z,292.82
2019-04-22T09:50:34.542Z,292.86
2019-04-22T09:53:45.129Z,292.95
2019-04-22T10:00:08.732Z,293.21
2019-04-22T10:03:25.661Z,293.41
2019-04-22T10:06:40.185Z,293.56
2019-04-22T10:10:14.885Z,293.56
2019-04-22T10:13:25.308Z,293.58
2019-04-22T10:19:03.953Z,294.04
2019-04-22T10:22:27.371Z,294.05
2019-04-22T10:25:22.832Z,294.17
2019-04-22T10:31:30.737Z,294.3
2019-04-22T10:34:16.583Z,294.23
2019-04-22T10:36:10.862Z,294.25
2019-04-22T10:37:40.551Z,294.19
2019-04-22T10:39:12.633Z,294.11
2019-04-22T10:40:42.775Z,294.12
2019-04-22T10:42:13.280Z,294.13
2019-04-22T10:43:43.259Z,294.21
2019-04-22T10:45:14.457Z,294.21
2019-04-22T10:46:48.283Z,294.21
2019-04-22T10:48:19.655Z,294.3
2019-04-22T10:49:49.494Z,294.43
2019-04-22T10:51:22.285Z,294.49
2019-04-22T10:52:52.811Z,294.53
2019-04-22T10:54:23.303Z,294.5
2019-04-22T10:55:54.498Z,294.44
2019-04-22T10:57:23.353Z,294.64
2019-04-22T10:58:53.979Z,294.77
2019-04-22T11:00:24.901Z,294.86
2019-04-22T11:01:54.969Z,294.87
2019-04-22T11:03:26.295Z,294.82
2019-04-22T11:04:58.493Z,294.82
2019-04-22T11:06:29.523Z,294.91
2019-04-22T11:08:20.120Z,294.95
2019-04-22T11:10:36.617Z,294.95
2019-04-22T11:12:47.122Z,295.06
2019-04-22T11:14:21.017Z,295.11
2019-04-22T11:15:50.952Z,295.11
2019-04-22T11:17:21.694Z,295.15
2019-04-22T11:18:51.620Z,295.22
2019-04-22T11:20:21.770Z,295.27
2019-04-22T11:22:12.520Z,295.33
2019-04-22T11:23:58.639Z,295.39
2019-04-22T11:25:29.809Z,295.45
2019-04-22T11:27:01.099Z,295.54
2019-04-22T11:28:33.848Z,295.57
2019-04-22T11:30:05.771Z,295.61
2019-04-22T11:31:36.555Z,295.71
2019-04-22T11:33:06.715Z,295.71
2019-04-22T11:34:37.463Z,295.77
2019-04-22T11:36:08.011Z,295.83
2019-04-22T11:37:38.712Z,295.92
2019-04-22T11:39:12.883Z,295.96
2019-04-22T11:40:56.167Z,296.02
2019-04-22T11:42:34.310Z,296
2019-04-22T11:44:07.524Z,295.95
2019-04-22T11:45:37.352Z,296.12
2019-04-22T11:47:07.559Z,296.3
2019-04-22T11:48:37.773Z,296.32
2019-04-22T11:50:08.035Z,296.36
2019-04-22T11:51:38.053Z,296.27
2019-04-22T11:53:08.935Z,296.21
2019-04-22T11:54:38.824Z,296.32
2019-04-22T11:56:08.892Z,296.37
2019-04-22T11:57:41.237Z,296.45
2019-04-22T11:59:12.904Z,296.41
2019-04-22T12:00:43.066Z,296.39
2019-04-22T12:02:15.682Z,296.48
2019-04-22T12:03:51.751Z,296.62
2019-04-22T12:05:23.743Z,296.66
2019-04-22T12:06:55.811Z,296.67
2019-04-22T12:08:27.012Z,296.76
2019-04-22T12:09:57.457Z,296.82
2019-04-22T12:11:28.213Z,296.81
2019-04-22T12:13:00.144Z,296.73
2019-04-22T12:14:31.826Z,296.78
2019-04-22T12:16:00.989Z,296.9
2019-04-22T12:17:31.932Z,296.93
2019-04-22T12:19:04.928Z,296.91
2019-04-22T12:20:34.995Z,296.91
2019-04-22T12:22:07.024Z,296.85
2019-04-22T12:23:37.046Z,296.89
2019-04-22T12:25:10.505Z,296.92
2019-04-22T12:26:42.343Z,296.96
2019-04-22T12:28:15.022Z,296.96
2019-04-22T12:29:47.048Z,296.95
2019-04-22T12:31:19.551Z,297
2019-04-22T12:32:48.667Z,297.08
2019-04-22T12:34:19.554Z,297.12
2019-04-22T12:35:52.599Z,297.2
2019-04-22T12:37:38.127Z,297.25
2019-04-22T12:39:25.366Z,297.23
2019-04-22T12:41:05.920Z,297.15
2019-04-22T12:42:42.625Z,297.05
2019-04-22T12:44:13.292Z,296.99
2019-04-22T12:45:45.422Z,297.1
2019-04-22T12:47:17.983Z,297.2
2019-04-22T12:48:49.779Z,297.21
2019-04-22T12:50:28.206Z,297.27
2019-04-22T12:52:21.860Z,297.34
2019-04-22T12:54:13.098Z,297.36
2019-04-22T12:57:48.541Z,297.33
2019-04-22T12:59:27.937Z,297.56
2019-04-22T13:01:01.027Z,297.62
2019-04-22T13:02:31.280Z,297.61
2019-04-22T13:04:09.468Z,297.52
2019-04-22T13:05:49.399Z,297.51
2019-04-22T13:07:21.768Z,297.5
2019-04-22T13:08:50.782Z,297.61
2019-04-22T13:10:21.933Z,297.62
2019-04-22T13:11:55.011Z,297.66
2019-04-22T13:13:27.149Z,297.74
2019-04-22T13:14:57.185Z,297.6
2019-04-22T13:16:29.274Z,297.64
2019-04-22T13:18:23.587Z,297.64
2019-04-22T13:20:20.577Z,297.54
2019-04-22T13:21:51.902Z,297.63
2019-04-22T13:23:23.021Z,297.67
2019-04-22T13:24:54.076Z,297.79
2019-04-22T13:26:25.398Z,297.84
2019-04-22T13:27:57.450Z,297.87
2019-04-22T13:29:27.533Z,297.96
2019-04-22T13:31:01.372Z,298.1
2019-04-22T13:32:34.716Z,298.13
2019-04-22T13:34:10.418Z,297.89
2019-04-22T13:36:03.738Z,297.93
2019-04-22T13:37:34.958Z,297.99
2019-04-22T13:39:06.699Z,298.01
2019-04-22T13:40:37.066Z,297.85
2019-04-22T13:42:14.056Z,297.79
2019-04-22T13:45:43.745Z,297.77
2019-04-22T13:47:50.046Z,297.82
2019-04-22T13:54:59.481Z,297.98
2019-04-22T13:57:58.107Z,297.94
2019-04-22T14:00:06.429Z,297.82
2019-04-22T14:01:43.581Z,297.93
2019-04-22T14:03:13.982Z,298.07
2019-04-22T14:04:43.834Z,298.02
2019-04-22T14:06:14.144Z,298.11
2019-04-22T14:07:43.979Z,298.18
2019-04-22T14:09:16.676Z,298.21
2019-04-22T14:10:50.293Z,297.96
2019-04-22T14:12:21.731Z,297.91
2019-04-22T14:13:52.113Z,297.9
2019-04-22T14:15:22.222Z,297.87
2019-04-22T14:16:53.206Z,297.88
2019-04-22T14:18:23.186Z,297.97
2019-04-22T14:19:54.838Z,297.98
2019-04-22T14:21:24.909Z,298.1
2019-04-22T14:22:56.656Z,298.24
2019-04-22T14:24:27.884Z,298.28
2019-04-22T14:25:59.048Z,298.13
2019-04-22T14:27:50.849Z,298.17
2019-04-22T14:29:39.715Z,298.13
2019-04-22T14:31:10.562Z,298.03
2019-04-22T14:32:42.104Z,297.97
2019-04-22T14:34:18.505Z,297.92
2019-04-22T14:35:51.933Z,297.95
2019-04-22T14:37:22.327Z,297.85
2019-04-22T14:38:54.348Z,297.84
2019-04-22T14:40:28.601Z,297.54
2019-04-22T14:42:43.757Z,297.36
2019-04-22T14:46:12.977Z,297.44
2019-04-22T14:49:23.706Z,297.48
2019-04-22T14:52:39.307Z,297.61
2019-04-22T14:55:15.498Z,297.46
2019-04-22T14:56:59.420Z,297.44
2019-04-22T14:58:31.035Z,297.47
2019-04-22T15:00:02.254Z,297.27
2019-04-22T15:01:35.022Z,297.1
2019-04-22T15:03:10.940Z,297.01
2019-04-22T15:04:41.558Z,296.99
2019-04-22T15:06:13.341Z,297.21
2019-04-22T15:07:44.605Z,297.27
2019-04-22T15:09:15.970Z,297.17
2019-04-22T15:10:46.152Z,296.98
2019-04-22T15:12:30.791Z,296.94
2019-04-22T15:14:17.212Z,296.94
2019-04-22T15:15:53.339Z,296.82
2019-04-22T15:17:31.309Z,296.71
2019-04-22T15:19:04.060Z,296.72
2019-04-22T15:20:33.995Z,296.78
2019-04-22T15:22:05.000Z,296.76
2019-04-22T15:23:35.900Z,296.8
2019-04-22T15:25:05.899Z,296.88
2019-04-22T15:26:35.821Z,296.88
2019-04-22T15:28:05.755Z,296.69
2019-04-22T15:29:36.700Z,296.62
2019-04-22T15:31:06.541Z,296.59
2019-04-22T15:32:36.698Z,296.66
2019-04-22T15:34:07.581Z,296.6
2019-04-22T15:35:38.615Z,296.4
2019-04-22T15:37:08.411Z,296.25
2019-04-22T15:38:38.325Z,296.24
2019-04-22T15:40:08.849Z,296.28
2019-04-22T15:41:38.721Z,296.12
2019-04-22T15:43:08.757Z,295.99
2019-04-22T15:44:39.862Z,296.04
2019-04-22T15:46:09.835Z,296.1
2019-04-22T15:47:39.997Z,296.15
2019-04-22T15:49:09.864Z,296.08
2019-04-22T15:50:40.481Z,296.15
2019-04-22T15:52:12.776Z,296.14
2019-04-22T15:53:43.378Z,295.86
2019-04-22T15:55:12.229Z,295.65
2019-04-22T15:56:42.060Z,295.59
2019-04-22T15:58:13.107Z,295.6
2019-04-22T16:00:18.043Z,295.56
2019-04-22T16:02:13.970Z,295.32
2019-04-22T16:03:46.880Z,295.21
2019-04-22T16:05:17.089Z,295.14
2019-04-22T16:06:49.369Z,295.15
2019-04-22T16:08:21.136Z,295.22
2019-04-22T16:09:51.901Z,295.25
2019-04-22T16:11:22.159Z,295.23
2019-04-22T16:13:09.078Z,295.06
2019-04-22T16:15:01.491Z,295.03
2019-04-22T16:16:37.111Z,295.03
2019-04-22T16:18:11.309Z,295.01
2019-04-22T16:19:45.123Z,295.02
2019-04-22T16:21:26.530Z,295.02
2019-04-22T16:23:20.613Z,294.89
2019-04-22T16:25:00.513Z,294.83
2019-04-22T16:26:32.550Z,294.9
2019-04-22T16:28:02.917Z,294.73
2019-04-22T16:29:33.563Z,294.61
2019-04-22T16:31:03.758Z,294.55
2019-04-22T16:32:33.768Z,294.48
2019-04-22T16:34:04.528Z,294.44
2019-04-22T16:35:38.060Z,294.44
2019-04-22T16:37:07.979Z,294.4
2019-04-22T16:38:37.980Z,294.43
2019-04-22T16:40:09.286Z,294.38
2019-04-22T16:41:39.819Z,294.25
2019-04-22T16:43:13.534Z,294.13
2019-04-22T16:44:47.270Z,294.05
2019-04-22T16:46:19.389Z,293.98
2019-04-22T16:47:49.426Z,294.02
2019-04-22T16:49:19.442Z,294.05
2019-04-22T16:50:52.662Z,294.09
2019-04-22T16:52:28.045Z,294.13
2019-04-22T16:53:59.986Z,294.12
2019-04-22T16:55:30.676Z,294.08
2019-04-22T16:57:01.854Z,294.1
2019-04-22T16:58:30.783Z,294.11
2019-04-22T17:00:00.437Z,294.09
2019-04-22T17:01:30.509Z,293.99
2019-04-22T17:03:02.741Z,293.89
2019-04-22T17:04:36.613Z,293.83
2019-04-22T17:06:07.808Z,293.71
2019-04-22T17:07:42.409Z,293.56
2019-04-22T17:09:14.132Z,293.37
2019-04-22T17:10:49.464Z,293.18
2019-04-22T17:12:21.650Z,293.11
2019-04-22T17:13:52.901Z,292.95
2019-04-22T17:15:25.019Z,292.81
2019-04-22T17:16:54.722Z,292.71
2019-04-22T17:18:25.400Z,292.7
2019-04-22T17:19:55.458Z,292.66
2019-04-22T17:21:27.719Z,292.55
2019-04-22T17:22:57.735Z,292.47
2019-04-22T17:24:27.813Z,292.43
2019-04-22T17:25:58.577Z,292.35
2019-04-22T17:27:31.260Z,292.28
2019-04-22T17:29:10.324Z,292.23
2019-04-22T17:30:41.507Z,292.09
2019-04-22T17:32:20.910Z,291.99
2019-04-22T17:33:57.081Z,291.89
2019-04-22T17:35:28.249Z,291.85
2019-04-22T17:36:59.285Z,291.8
2019-04-22T17:38:45.306Z,291.75
2019-04-22T17:41:07.572Z,291.68
2019-04-22T17:44:24.795Z,291.58
2019-04-22T17:47:01.220Z,291.45
2019-04-22T17:50:08.053Z,291.29
2019-04-22T17:53:08.057Z,291.24
2019-04-22T18:01:52.186Z,290.86
2019-04-22T18:04:01.352Z,290.86
2019-04-22T18:05:49.978Z,290.76
2019-04-22T18:10:53.812Z,290.59
2019-04-22T18:13:51.325Z,290.47
2019-04-22T18:17:06.725Z,290.33
2019-04-22T18:19:45.832Z,290.28
2019-04-22T18:22:18.312Z,290.18
2019-04-22T18:24:46.178Z,290.07
2019-04-22T18:27:38.729Z,290
2019-04-22T18:30:31.955Z,289.85
2019-04-22T18:33:12.526Z,289.8
2019-04-22T18:35:53.724Z,289.71
2019-04-22T18:41:31.992Z,289.57
2019-04-22T18:44:32.324Z,289.5
2019-04-22T18:47:45.058Z,289.44
2019-04-22T18:50:25.839Z,289.38
2019-04-22T18:53:21.504Z,289.29
2019-04-22T18:55:47.536Z,289.22
2019-04-22T18:58:34.230Z,289.12
2019-04-22T19:00:29.299Z,289.13
2019-04-22T19:02:13.877Z,289.08
2019-04-22T19:04:12.780Z,288.83
2019-04-22T19:06:58.408Z,288.68
2019-04-22T19:10:09.395Z,288.62
2019-04-22T19:17:16.814Z,288.41
2019-04-22T19:20:23.092Z,288.31
2019-04-22T19:23:44.714Z,288.29
2019-04-22T19:26:58.549Z,288.23
2019-04-22T19:29:57.145Z,288.22
2019-04-22T19:33:10.464Z,288.17
2019-04-22T19:36:10.604Z,288.08
2019-04-22T19:38:46.090Z,288.03
2019-04-22T19:44:47.929Z,288
2019-04-22T19:48:11.691Z,287.89
2019-04-22T19:51:02.506Z,287.9
2019-04-22T19:54:28.906Z,287.88
2019-04-22T19:57:43.044Z,287.85
2019-04-22T20:00:10.752Z,287.81
2019-04-22T20:02:58.710Z,287.64
2019-04-22T20:06:05.424Z,287.42
2019-04-22T20:09:13.157Z,287.37
2019-04-22T20:12:16.281Z,287.24
2019-04-22T20:15:04.909Z,287.2
2019-04-22T20:18:08.429Z,287.2
2019-04-22T20:21:22.078Z,287.15
2019-04-22T20:23:51.378Z,287.09
2019-04-22T20:26:45.296Z,287
2019-04-22T20:32:21.414Z,286.88
2019-04-22T20:35:20.664Z,286.8
2019-04-22T20:38:53.485Z,286.72
2019-04-22T20:41:57.618Z,286.65
2019-04-22T20:45:30.369Z,286.47
2019-04-22T20:48:05.700Z,286.46
2019-04-22T20:51:03.649Z,286.36
2019-04-22T20:54:22.567Z,286.31
2019-04-22T20:57:06.848Z,286.32
2019-04-22T21:00:05.896Z,286.26
2019-04-22T21:02:39.782Z,286.31
2019-04-22T21:04:56.559Z,286.27
2019-04-22T21:10:00.719Z,286.19
2019-04-22T21:12:27.222Z,286.08
2019-04-22T21:15:12.034Z,286.02
2019-04-22T21:18:05.147Z,285.99
2019-04-22T21:20:56.021Z,285.96
2019-04-22T21:23:59.276Z,285.9
2019-04-22T21:26:43.334Z,285.7
2019-04-22T21:29:26.167Z,285.54
2019-04-22T21:32:17.313Z,285.34
2019-04-22T21:35:05.513Z,285.38
2019-04-22T21:38:37.060Z,285.24
2019-04-22T21:41:30.244Z,284.87
2019-04-22T21:44:17.763Z,284.7
2019-04-22T21:47:28.540Z,284.6
2019-04-22T21:50:47.711Z,284.34
2019-04-22T21:54:09.415Z,284.08
2019-04-22T22:00:03.298Z,283.66
2019-04-22T22:03:12.664Z,283.74
2019-04-22T22:06:05.813Z,283.61
2019-04-22T22:08:38.496Z,283.26
2019-04-22T22:11:27.307Z,283.19
2019-04-22T22:14:16.546Z,283.13
2019-04-22T22:16:51.560Z,283.22
2019-04-22T22:19:52.706Z,283.39
2019-04-22T22:23:14.641Z,283.41
2019-04-22T22:26:13.235Z,283.47
2019-04-22T22:29:28.107Z,283.56
2019-04-22T22:33:05.103Z,283.59
2019-04-22T22:36:00.605Z,283.42
2019-04-22T22:38:45.368Z,283.24
2019-04-22T22:40:50.048Z,283.27
2019-04-22T22:42:36.064Z,283.17
2019-04-22T22:44:35.733Z,283.14
2019-04-22T22:46:37.246Z,282.99
2019-04-22T22:49:32.797Z,282.76
2019-04-22T22:56:15.859Z,282.79
2019-04-22T22:59:55.015Z,282.76
2019-04-22T23:02:46.711Z,282.24
2019-04-22T23:06:32.602Z,282.01
2019-04-22T23:09:25.597Z,281.83
2019-04-22T23:12:22.267Z,281.9
2019-04-22T23:15:32.923Z,281.66
2019-04-22T23:17:39.680Z,281.65
2019-04-22T23:19:15.294Z,281.72
2019-04-22T23:20:54.070Z,281.88
2019-04-22T23:23:07.330Z,281.97
2019-04-22T23:25:59.505Z,282.21
2019-04-22T23:28:57.162Z,282.12
2019-04-22T23:31:09.355Z,281.88
2019-04-22T23:33:42.192Z,281.92
2019-04-22T23:36:10.569Z,281.67
